Weather History for McGregor, TX

Change the Weather History Date:

Sunday, September 1, 2013

  Actual Average Record
Temperature  
Mean Temperature 90 °F -  
Max Temperature 102 °F 90 °F 105 °F (2000)
Min Temperature 77 °F 69 °F 59 °F (2004)
Cooling Degree Days 24    
Growing Degree Days 40 (Base 50)    
Moisture  
Dew Point 64 °F    
Average Humidity 44    
Maximum Humidity 65    
Minimum Humidity 27    
Precipitation  
Precipitation 0.00 in - - ()
Sea Level Pressure  
Sea Level Pressure 29.85 in    
Wind  
Wind Speed 9 mph (South)    
Max Wind Speed 13 mph    
Max Gust Speed 17 mph    
Visibility 10 miles    
Events      
Averages and records for this station are not official NWS values.
T = Trace of Precipitation, MM = Missing Value Source: NWS Daily Summary

Daily Weather History Graph

Daily Weather History Graph

Search for Another Location

Airport:

Trip Planner

Search our weather history database for the weather conditions in past years. The results will help you decide how hot, cold, wet, or windy it might be!

Date:

Astronomy

Sep. 01, 2013 Rise Set
Actual Time 7:05 AM CDT 7:52 PM CDT
Civil Twilight 6:40 AM CDT 8:17 PM CDT
Nautical Twilight 6:11 AM CDT 8:46 PM CDT
Astronomical Twilight 5:41 AM CDT 9:16 PM CDT
Moon 3:37 AM CDT (9/1) 5:23 PM CDT (9/1)
Length of Visible Light 13h 36m
Length of Day
12h 47m
Waning Crescent, 13% of the Moon is Illuminated
Sep 1
Waning Crescent
Sep 5
New
Sep 12
First Quarter
Sep 19
Full
Sep 26
Last Quarter

Hourly Weather History & Observations

Time (CDT) Temp. Heat Index Dew Point Humidity Pressure Visibility Wind Dir Wind Speed Gust Speed Precip Events Conditions
12:15 AM 87.8 °F 88.5 °F 62.6 °F 43% 29.83 in 10.0 mi South 9.2 mph - N/A   Clear
12:35 AM 86.0 °F 86.6 °F 62.6 °F 45% 29.83 in 10.0 mi South 11.5 mph - N/A   Clear
12:55 AM 86.0 °F 86.6 °F 62.6 °F 45% 29.84 in 10.0 mi South 10.4 mph - N/A   Clear
1:15 AM 86.0 °F 86.6 °F 62.6 °F 45% 29.84 in 10.0 mi South 11.5 mph - N/A   Clear
1:35 AM 84.2 °F 85.0 °F 62.6 °F 48% 29.84 in 10.0 mi South 10.4 mph - N/A   Clear
1:55 AM 84.2 °F 85.0 °F 62.6 °F 48% 29.84 in 10.0 mi South 9.2 mph - N/A   Clear
2:15 AM 84.2 °F 85.0 °F 62.6 °F 48% 29.85 in 10.0 mi South 10.4 mph - N/A   Clear
2:35 AM 82.4 °F 83.9 °F 64.4 °F 54% 29.86 in 10.0 mi South 9.2 mph - N/A   Clear
2:55 AM 82.4 °F 83.9 °F 64.4 °F 54% 29.86 in 10.0 mi South 11.5 mph - N/A   Clear
3:15 AM 82.4 °F 83.9 °F 64.4 °F 54% 29.86 in 10.0 mi South 9.2 mph - N/A   Clear
3:35 AM 82.4 °F 83.9 °F 64.4 °F 54% 29.86 in 10.0 mi SSW 9.2 mph - N/A   Clear
3:55 AM 80.6 °F 82.3 °F 64.4 °F 58% 29.87 in 10.0 mi South 8.1 mph - N/A   Clear
4:15 AM 80.6 °F 82.3 °F 64.4 °F 58% 29.87 in 10.0 mi South 10.4 mph - N/A   Clear
4:35 AM 80.6 °F 82.3 °F 64.4 °F 58% 29.87 in 10.0 mi South 10.4 mph - N/A   Clear
4:55 AM 80.6 °F 82.3 °F 64.4 °F 58% 29.87 in 10.0 mi South 9.2 mph - N/A   Clear
5:15 AM 78.8 °F - 64.4 °F 61% 29.87 in 10.0 mi South 9.2 mph - N/A   Clear
5:35 AM 78.8 °F - 64.4 °F 61% 29.87 in 10.0 mi South 8.1 mph - N/A   Clear
5:55 AM 78.8 °F - 64.4 °F 61% 29.88 in 10.0 mi South 8.1 mph - N/A   Clear
6:15 AM 78.8 °F - 64.4 °F 61% 29.88 in 10.0 mi South 9.2 mph - N/A   Clear
6:35 AM 78.8 °F - 64.4 °F 61% 29.88 in 10.0 mi South 9.2 mph - N/A   Clear
6:55 AM 78.8 °F - 64.4 °F 61% 29.88 in 10.0 mi SSW 8.1 mph - N/A   Clear
7:15 AM 77.0 °F - 64.4 °F 65% 29.88 in 10.0 mi SSW 6.9 mph - N/A   Clear
7:35 AM 78.8 °F - 64.4 °F 61% 29.89 in 10.0 mi SSW 8.1 mph - N/A   Clear
7:55 AM 78.8 °F - 64.4 °F 61% 29.90 in 10.0 mi SSW 9.2 mph - N/A   Clear
8:15 AM 78.8 °F - 64.4 °F 61% 29.90 in 10.0 mi SSW 11.5 mph - N/A   Clear
8:35 AM 80.6 °F 82.7 °F 66.2 °F 61% 29.90 in 10.0 mi SSW 10.4 mph - N/A   Clear
8:55 AM 82.4 °F 84.6 °F 66.2 °F 58% 29.90 in 10.0 mi SSW 10.4 mph - N/A   Clear
9:15 AM 84.2 °F 86.6 °F 66.2 °F 55% 29.91 in 10.0 mi SSW 9.2 mph - N/A   Clear
9:35 AM 86.0 °F 88.2 °F 66.2 °F 51% 29.92 in 10.0 mi SSW 11.5 mph - N/A   Clear
9:55 AM 87.8 °F 90.4 °F 66.2 °F 49% 29.92 in 10.0 mi SSW 10.4 mph - N/A   Clear
10:15 AM 89.6 °F 92.2 °F 66.2 °F 46% 29.92 in 10.0 mi SSW 11.5 mph - N/A   Clear
10:35 AM 89.6 °F 92.2 °F 66.2 °F 46% 29.92 in 10.0 mi South 10.4 mph - N/A   Clear
10:55 AM 91.4 °F 95.4 °F 68.0 °F 46% 29.91 in 10.0 mi SSW 9.2 mph - N/A   Clear
11:15 AM 93.2 °F 97.7 °F 68.0 °F 44% 29.91 in 10.0 mi South 6.9 mph - N/A   Clear
11:35 AM 96.8 °F 100.7 °F 66.2 °F 37% 29.90 in 10.0 mi South 9.2 mph - N/A   Clear
11:55 AM 98.6 °F 102.8 °F 66.2 °F 35% 29.90 in 10.0 mi SSW 10.4 mph 16.1 mph N/A   Clear
12:15 PM 98.6 °F 102.8 °F 66.2 °F 35% 29.89 in 10.0 mi WSW 9.2 mph - N/A   Clear
12:35 PM 98.6 °F 102.8 °F 66.2 °F 35% 29.88 in 10.0 mi SW 6.9 mph - N/A   Clear
12:55 PM 98.6 °F 102.8 °F 66.2 °F 35% 29.88 in 10.0 mi SSE 6.9 mph - N/A   Clear
1:15 PM 100.4 °F 104.9 °F 66.2 °F 33% 29.87 in 10.0 mi East 4.6 mph 16.1 mph N/A   Clear
1:35 PM 100.4 °F 104.9 °F 66.2 °F 33% 29.86 in 10.0 mi South 6.9 mph - N/A   Partly Cloudy
1:55 PM 102.2 °F 106.9 °F 66.2 °F 31% 29.86 in 10.0 mi SE 10.4 mph 17.3 mph N/A   Partly Cloudy
2:15 PM 102.2 °F 106.9 °F 66.2 °F 31% 29.85 in 10.0 mi East 4.6 mph - N/A   Clear
2:35 PM 102.2 °F 105.5 °F 64.4 °F 29% 29.84 in 10.0 mi South 10.4 mph - N/A   Clear
2:55 PM 102.2 °F 105.5 °F 64.4 °F 29% 29.83 in 10.0 mi ESE 4.6 mph - N/A   Clear
3:15 PM 102.2 °F 105.5 °F 64.4 °F 29% 29.82 in 10.0 mi SE 11.5 mph 16.1 mph N/A   Clear
3:35 PM 100.4 °F 103.6 °F 64.4 °F 31% 29.82 in 10.0 mi SE 8.1 mph 17.3 mph N/A   Clear
3:55 PM 100.4 °F 103.6 °F 64.4 °F 31% 29.81 in 10.0 mi ESE 6.9 mph - N/A   Clear
4:15 PM 102.2 °F 105.5 °F 64.4 °F 29% 29.80 in 10.0 mi East 9.2 mph - N/A   Clear
4:35 PM 102.2 °F 105.5 °F 64.4 °F 29% 29.80 in 10.0 mi SE 10.4 mph - N/A   Clear
4:55 PM 102.2 °F 105.5 °F 64.4 °F 29% 29.80 in 10.0 mi SSW 5.8 mph - N/A   Clear
5:15 PM 102.2 °F 104.2 °F 62.6 °F 27% 29.79 in 10.0 mi SSE 10.4 mph - N/A   Clear
5:35 PM 102.2 °F 104.2 °F 62.6 °F 27% 29.79 in 10.0 mi SE 3.5 mph - N/A   Clear
5:55 PM 102.2 °F 104.2 °F 62.6 °F 27% 29.78 in 10.0 mi SSE 8.1 mph - N/A   Clear
6:15 PM 102.2 °F 104.2 °F 62.6 °F 27% 29.78 in 10.0 mi SSE 8.1 mph - N/A   Clear
6:35 PM 100.4 °F 102.4 °F 62.6 °F 29% 29.78 in 10.0 mi SSE 6.9 mph - N/A   Clear
6:55 PM 100.4 °F 102.4 °F 62.6 °F 29% 29.79 in 10.0 mi WSW 8.1 mph - N/A   Clear
7:15 PM 96.8 °F 99.0 °F 64.4 °F 34% 29.79 in 10.0 mi SW 9.2 mph - N/A   Clear
7:35 PM 95.0 °F 96.0 °F 62.6 °F 34% 29.80 in 10.0 mi South 12.7 mph - N/A   Clear
7:55 PM 93.2 °F 93.3 °F 60.8 °F 34% 29.81 in 10.0 mi South 9.2 mph - N/A   Clear
8:15 PM 91.4 °F 90.7 °F 59.0 °F 34% 29.82 in 10.0 mi South 8.1 mph - N/A   Clear
8:35 PM 89.6 °F 89.5 °F 60.8 °F 38% 29.82 in 10.0 mi SSE 6.9 mph - N/A   Clear
8:55 PM 89.6 °F 89.5 °F 60.8 °F 38% 29.83 in 10.0 mi South 8.1 mph - N/A   Clear
9:15 PM 87.8 °F 87.6 °F 60.8 °F 40% 29.83 in 10.0 mi South 4.6 mph - N/A   Clear
9:35 PM 87.8 °F 87.6 °F 60.8 °F 40% 29.85 in 10.0 mi South 5.8 mph - N/A   Clear
9:55 PM 86.0 °F 86.1 °F 60.8 °F 43% 29.85 in 10.0 mi South 5.8 mph - N/A   Clear
10:15 PM 84.2 °F 84.4 °F 60.8 °F 45% 29.85 in 10.0 mi South 5.8 mph - N/A   Clear
10:35 PM 84.2 °F 84.4 °F 60.8 °F 45% 29.86 in 10.0 mi South 5.8 mph - N/A   Clear
10:55 PM 84.2 °F 84.4 °F 60.8 °F 45% 29.86 in 10.0 mi South 6.9 mph - N/A   Clear
11:15 PM 84.2 °F 85.0 °F 62.6 °F 48% 29.86 in 10.0 mi South 9.2 mph - N/A   Clear
11:35 PM 84.2 °F 85.0 °F 62.6 °F 48% 29.86 in 10.0 mi South 6.9 mph - N/A   Clear
11:55 PM 84.2 °F 85.0 °F 62.6 °F 48% 29.87 in 10.0 mi South 6.9 mph - N/A   Clear